createdAt,value
2023-04-11T00:02:15.411Z,0
2023-04-11T00:08:35.352Z,0
2023-04-11T00:14:58.464Z,0
2023-04-11T00:21:18.361Z,0
2023-04-11T00:27:41.381Z,0
2023-04-11T00:34:01.345Z,0
2023-04-11T00:40:24.380Z,0
2023-04-11T00:46:46.075Z,0
2023-04-11T00:53:07.423Z,0
2023-04-11T00:59:27.329Z,0
2023-04-11T01:05:50.436Z,0
2023-04-11T01:12:10.432Z,0
2023-04-11T01:18:33.429Z,0
2023-04-11T01:24:53.372Z,0
2023-04-11T01:31:16.509Z,0
2023-04-11T01:37:36.343Z,0
2023-04-11T01:43:59.386Z,0
2023-04-11T01:50:19.450Z,0
2023-04-11T01:56:42.436Z,0
2023-04-11T02:03:02.574Z,0
2023-04-11T02:09:25.428Z,0
2023-04-11T02:15:45.388Z,0
2023-04-11T02:22:08.344Z,0
2023-04-11T02:28:28.501Z,0
2023-04-11T02:34:51.411Z,0
2023-04-11T02:41:11.421Z,0
2023-04-11T02:47:34.372Z,0
2023-04-11T02:53:54.359Z,0
2023-04-11T03:00:17.388Z,0
2023-04-11T03:06:37.427Z,0
2023-04-11T03:13:00.354Z,0
2023-04-11T03:19:20.426Z,0
2023-04-11T03:42:45.316Z,0
2023-04-11T03:49:08.329Z,0
2023-04-11T03:55:28.373Z,0
2023-04-11T04:01:51.401Z,0
2023-04-11T04:08:11.403Z,0
2023-04-11T04:14:34.360Z,0
2023-04-11T04:20:54.432Z,1
2023-04-11T04:27:17.417Z,2
2023-04-11T04:33:37.312Z,5
2023-04-11T04:40:00.416Z,17
2023-04-11T04:46:20.448Z,35
2023-04-11T04:52:43.395Z,79
2023-04-11T04:59:03.432Z,113
2023-04-11T05:05:26.342Z,143
2023-04-11T05:11:46.398Z,168
2023-04-11T05:18:09.531Z,192
2023-04-11T05:24:29.413Z,190
2023-04-11T05:30:52.420Z,313
2023-04-11T05:37:12.396Z,234
2023-04-11T05:43:35.425Z,353
2023-04-11T05:49:55.349Z,452
2023-04-11T05:56:18.421Z,663
2023-04-11T06:02:38.483Z,633
2023-04-11T06:09:01.359Z,749
2023-04-11T06:15:21.415Z,541
2023-04-11T06:21:44.375Z,867
2023-04-11T06:28:04.625Z,842
2023-04-11T06:34:27.462Z,830
2023-04-11T06:40:47.318Z,1020
2023-04-11T06:47:10.415Z,1011
2023-04-11T06:53:30.412Z,1334
2023-04-11T06:59:53.398Z,1215
2023-04-11T07:06:13.364Z,1203
2023-04-11T07:12:36.418Z,1095
2023-04-11T07:18:56.373Z,1189
2023-04-11T07:25:19.385Z,1283
2023-04-11T07:31:39.439Z,2590
2023-04-11T07:38:02.390Z,2339
2023-04-11T07:44:23.797Z,2203
2023-04-11T07:50:45.459Z,2565
2023-04-11T07:57:05.353Z,2082
2023-04-11T08:03:28.540Z,3154
2023-04-11T08:09:48.395Z,2744
2023-04-11T08:16:11.363Z,2913
2023-04-11T08:22:31.391Z,1954
2023-04-11T08:28:54.414Z,3162
2023-04-11T08:35:14.399Z,3304
2023-04-11T08:41:37.443Z,2896
2023-04-11T08:47:57.407Z,3266
2023-04-11T08:54:20.371Z,4509
2023-04-11T09:18:02.517Z,2394
2023-04-11T09:24:22.336Z,2450
2023-04-11T09:30:45.382Z,4172
2023-04-11T09:37:05.422Z,5146
2023-04-11T09:43:28.355Z,5459
2023-04-11T09:49:48.378Z,3540
2023-04-11T09:56:11.402Z,3423
2023-04-11T10:02:31.503Z,5583
2023-04-11T10:08:54.660Z,4813
2023-04-11T10:15:14.391Z,3024
2023-04-11T10:21:37.482Z,3924
2023-04-11T10:27:57.372Z,5438
2023-04-11T10:34:20.366Z,3974
2023-04-11T10:40:40.356Z,4794
2023-04-11T10:47:03.365Z,4020
2023-04-11T10:53:23.409Z,5661
2023-04-11T10:59:46.334Z,5905
2023-04-11T11:06:06.386Z,6504
2023-04-11T11:12:29.430Z,6193
2023-04-11T11:18:49.346Z,3382
2023-04-11T11:25:12.418Z,3462
2023-04-11T11:31:32.373Z,6774
2023-04-11T11:37:55.441Z,7573
2023-04-11T11:44:15.336Z,2540
2023-04-11T11:50:38.380Z,7136
2023-04-11T11:56:58.391Z,7049
2023-04-11T12:03:21.408Z,7436
2023-04-11T12:09:41.407Z,8200
2023-04-11T12:16:04.351Z,7630
2023-04-11T12:22:24.346Z,8075
2023-04-11T12:28:47.426Z,7870
2023-04-11T12:35:07.356Z,2289
2023-04-11T12:41:32.009Z,7040
2023-04-11T12:47:50.439Z,8096
2023-04-11T12:54:13.332Z,3360
2023-04-11T13:00:33.400Z,8373
2023-04-11T13:06:56.354Z,9337
2023-04-11T13:13:18.241Z,9226
2023-04-11T13:19:39.345Z,7945
2023-04-11T13:25:59.366Z,7885
2023-04-11T13:32:22.424Z,8134
2023-04-11T13:38:42.327Z,2598
2023-04-11T13:45:05.449Z,10060
2023-04-11T13:51:25.340Z,3208
2023-04-11T13:57:48.375Z,4625
2023-04-11T14:04:08.528Z,5105
2023-04-11T14:10:32.332Z,5038
2023-04-11T14:16:52.389Z,3627
2023-04-11T14:23:15.439Z,3306
2023-04-11T14:29:35.458Z,8100
2023-04-11T14:35:58.380Z,3348
2023-04-11T14:42:18.360Z,6668
2023-04-11T15:05:06.386Z,2452
2023-04-11T15:11:29.329Z,3524
2023-04-11T15:17:49.428Z,3450
2023-04-11T15:24:12.359Z,4006
2023-04-11T15:30:32.369Z,8710
2023-04-11T15:36:55.370Z,7424
2023-04-11T15:43:15.417Z,6939
2023-04-11T15:49:38.405Z,4943
2023-04-11T15:55:58.323Z,5695
2023-04-11T16:02:21.425Z,7838
2023-04-11T16:08:41.363Z,4917
2023-04-11T16:15:04.361Z,5739
2023-04-11T16:21:24.408Z,3918
2023-04-11T16:27:47.321Z,2239
2023-04-11T16:34:07.305Z,1316
2023-04-11T16:40:30.416Z,1280
2023-04-11T16:46:50.350Z,1212
2023-04-11T16:53:13.400Z,1628
2023-04-11T16:59:33.365Z,1596
2023-04-11T17:05:56.360Z,1041
2023-04-11T17:12:16.402Z,862
2023-04-11T17:18:39.393Z,706
2023-04-11T17:24:59.452Z,790
2023-04-11T17:31:22.413Z,725
2023-04-11T17:37:42.430Z,648
2023-04-11T17:44:05.402Z,487
2023-04-11T17:50:25.317Z,369
2023-04-11T17:56:48.398Z,243
2023-04-11T18:03:08.822Z,184
2023-04-11T18:09:31.450Z,124
2023-04-11T18:15:51.400Z,73
2023-04-11T18:22:14.609Z,42
2023-04-11T18:28:34.343Z,20
2023-04-11T18:34:57.413Z,9
2023-04-11T18:41:18.403Z,3
2023-04-11T18:47:40.533Z,1
2023-04-11T18:54:00.446Z,1
2023-04-11T19:00:23.416Z,0
2023-04-11T19:06:43.366Z,0
2023-04-11T19:13:06.383Z,0
2023-04-11T19:19:26.386Z,0
2023-04-11T19:25:49.390Z,0
2023-04-11T19:32:09.540Z,0
2023-04-11T19:38:32.466Z,0
2023-04-11T19:44:52.365Z,0
2023-04-11T19:51:15.436Z,0
2023-04-11T19:57:35.350Z,0
2023-04-11T20:20:41.352Z,0
2023-04-11T20:27:04.324Z,0
2023-04-11T20:33:24.359Z,0
2023-04-11T20:39:47.386Z,0
2023-04-11T20:46:07.381Z,0
2023-04-11T20:52:30.404Z,0
2023-04-11T20:58:50.415Z,0
2023-04-11T21:05:13.453Z,0
2023-04-11T21:11:33.365Z,0
2023-04-11T21:17:56.456Z,0
2023-04-11T21:24:16.409Z,0
2023-04-11T21:30:39.360Z,0
2023-04-11T21:36:59.432Z,0
2023-04-11T21:43:22.337Z,0
2023-04-11T21:49:42.360Z,0
2023-04-11T21:56:05.441Z,0
2023-04-11T22:20:20.339Z,0
2023-04-11T22:26:40.351Z,0
2023-04-11T22:33:03.398Z,0
2023-04-11T22:39:23.455Z,0
2023-04-11T22:45:46.352Z,0
2023-04-11T22:52:06.411Z,0
2023-04-11T22:58:29.378Z,0
2023-04-11T23:04:49.539Z,0
2023-04-11T23:11:12.334Z,0
2023-04-11T23:17:32.482Z,0
2023-04-11T23:23:55.463Z,0
2023-04-11T23:30:15.349Z,0
2023-04-11T23:36:38.367Z,0
2023-04-11T23:42:58.330Z,0
2023-04-11T23:49:21.403Z,0
2023-04-11T23:55:41.383Z,0
